sensor_id;sensor_type;location;lat;lon;timestamp;P1;durP1;ratioP1;P2;durP2;ratioP2
46505;SDS011;32220;49.808;9.968;2024-03-17T00:00:47;4.60;;;3.73;;
46505;SDS011;32220;49.808;9.968;2024-03-17T00:03:14;5.03;;;3.80;;
46505;SDS011;32220;49.808;9.968;2024-03-17T00:05:41;6.13;;;4.03;;
46505;SDS011;32220;49.808;9.968;2024-03-17T00:08:09;4.23;;;3.67;;
46505;SDS011;32220;49.808;9.968;2024-03-17T00:10:36;6.77;;;4.67;;
46505;SDS011;32220;49.808;9.968;2024-03-17T00:13:03;5.00;;;4.20;;
46505;SDS011;32220;49.808;9.968;2024-03-17T00:15:31;4.47;;;3.77;;
46505;SDS011;32220;49.808;9.968;2024-03-17T00:17:58;4.40;;;4.00;;
46505;SDS011;32220;49.808;9.968;2024-03-17T00:20:25;3.57;;;3.27;;
46505;SDS011;32220;49.808;9.968;2024-03-17T00:22:52;4.60;;;3.40;;
46505;SDS011;32220;49.808;9.968;2024-03-17T00:25:21;4.40;;;3.50;;
46505;SDS011;32220;49.808;9.968;2024-03-17T00:27:48;4.37;;;3.73;;
46505;SDS011;32220;49.808;9.968;2024-03-17T00:30:16;4.70;;;3.73;;
46505;SDS011;32220;49.808;9.968;2024-03-17T00:32:44;4.73;;;3.43;;
46505;SDS011;32220;49.808;9.968;2024-03-17T00:35:11;3.80;;;3.40;;
46505;SDS011;32220;49.808;9.968;2024-03-17T00:37:40;6.87;;;3.77;;
46505;SDS011;32220;49.808;9.968;2024-03-17T00:40:07;5.17;;;3.70;;
46505;SDS011;32220;49.808;9.968;2024-03-17T00:42:36;3.67;;;3.27;;
46505;SDS011;32220;49.808;9.968;2024-03-17T00:45:04;3.57;;;3.23;;
46505;SDS011;32220;49.808;9.968;2024-03-17T00:47:32;3.63;;;3.23;;
46505;SDS011;32220;49.808;9.968;2024-03-17T00:50:00;3.97;;;3.20;;
46505;SDS011;32220;49.808;9.968;2024-03-17T00:52:26;3.40;;;3.10;;
46505;SDS011;32220;49.808;9.968;2024-03-17T00:54:54;2.87;;;2.67;;
46505;SDS011;32220;49.808;9.968;2024-03-17T00:57:20;3.73;;;2.77;;
46505;SDS011;32220;49.808;9.968;2024-03-17T00:59:49;3.20;;;2.57;;
46505;SDS011;32220;49.808;9.968;2024-03-17T01:02:16;4.17;;;3.37;;
46505;SDS011;32220;49.808;9.968;2024-03-17T01:04:44;3.83;;;3.40;;
46505;SDS011;32220;49.808;9.968;2024-03-17T01:07:11;6.60;;;4.60;;
46505;SDS011;32220;49.808;9.968;2024-03-17T01:09:39;6.83;;;4.50;;
46505;SDS011;32220;49.808;9.968;2024-03-17T01:12:05;5.97;;;4.70;;
46505;SDS011;32220;49.808;9.968;2024-03-17T01:14:33;4.67;;;3.87;;
46505;SDS011;32220;49.808;9.968;2024-03-17T01:17:01;4.30;;;3.90;;
46505;SDS011;32220;49.808;9.968;2024-03-17T01:19:30;5.13;;;4.17;;
46505;SDS011;32220;49.808;9.968;2024-03-17T01:21:57;4.77;;;3.47;;
46505;SDS011;32220;49.808;9.968;2024-03-17T01:24:27;4.87;;;4.10;;
46505;SDS011;32220;49.808;9.968;2024-03-17T01:26:57;4.63;;;4.07;;
46505;SDS011;32220;49.808;9.968;2024-03-17T01:29:26;7.17;;;4.23;;
46505;SDS011;32220;49.808;9.968;2024-03-17T01:31:53;4.67;;;3.80;;
46505;SDS011;32220;49.808;9.968;2024-03-17T01:34:22;4.53;;;3.43;;
46505;SDS011;32220;49.808;9.968;2024-03-17T01:36:50;7.67;;;3.73;;
46505;SDS011;32220;49.808;9.968;2024-03-17T01:39:17;4.63;;;3.40;;
46505;SDS011;32220;49.808;9.968;2024-03-17T01:41:44;4.37;;;3.37;;
46505;SDS011;32220;49.808;9.968;2024-03-17T01:44:21;3.90;;;3.50;;
46505;SDS011;32220;49.808;9.968;2024-03-17T01:46:50;4.17;;;3.50;;
46505;SDS011;32220;49.808;9.968;2024-03-17T01:49:16;3.67;;;3.07;;
46505;SDS011;32220;49.808;9.968;2024-03-17T01:51:45;5.13;;;3.50;;
46505;SDS011;32220;49.808;9.968;2024-03-17T01:54:14;3.60;;;3.20;;
46505;SDS011;32220;49.808;9.968;2024-03-17T01:56:43;3.83;;;3.40;;
46505;SDS011;32220;49.808;9.968;2024-03-17T01:59:09;3.60;;;3.30;;
46505;SDS011;32220;49.808;9.968;2024-03-17T02:01:37;4.33;;;3.77;;
46505;SDS011;32220;49.808;9.968;2024-03-17T02:04:04;5.53;;;4.00;;
46505;SDS011;32220;49.808;9.968;2024-03-17T02:06:32;4.67;;;3.90;;
46505;SDS011;32220;49.808;9.968;2024-03-17T02:09:00;5.27;;;3.83;;
46505;SDS011;32220;49.808;9.968;2024-03-17T02:11:29;3.87;;;3.20;;
46505;SDS011;32220;49.808;9.968;2024-03-17T02:13:56;3.87;;;3.37;;
46505;SDS011;32220;49.808;9.968;2024-03-17T02:16:24;5.50;;;3.70;;
46505;SDS011;32220;49.808;9.968;2024-03-17T02:18:53;5.13;;;3.33;;
46505;SDS011;32220;49.808;9.968;2024-03-17T02:21:22;4.07;;;3.67;;
46505;SDS011;32220;49.808;9.968;2024-03-17T02:23:50;5.23;;;3.87;;
46505;SDS011;32220;49.808;9.968;2024-03-17T02:26:18;3.93;;;3.40;;
46505;SDS011;32220;49.808;9.968;2024-03-17T02:28:46;5.63;;;3.70;;
46505;SDS011;32220;49.808;9.968;2024-03-17T02:31:14;4.67;;;3.63;;
46505;SDS011;32220;49.808;9.968;2024-03-17T02:33:42;5.20;;;4.20;;
46505;SDS011;32220;49.808;9.968;2024-03-17T02:36:11;4.47;;;3.63;;
46505;SDS011;32220;49.808;9.968;2024-03-17T02:38:38;4.20;;;3.60;;
46505;SDS011;32220;49.808;9.968;2024-03-17T02:41:36;5.30;;;3.93;;
46505;SDS011;32220;49.808;9.968;2024-03-17T02:44:04;3.80;;;3.40;;
46505;SDS011;32220;49.808;9.968;2024-03-17T02:46:32;6.20;;;4.23;;
46505;SDS011;32220;49.808;9.968;2024-03-17T02:49:00;5.00;;;4.10;;
46505;SDS011;32220;49.808;9.968;2024-03-17T02:51:28;5.77;;;3.57;;
46505;SDS011;32220;49.808;9.968;2024-03-17T02:53:55;4.97;;;3.80;;
46505;SDS011;32220;49.808;9.968;2024-03-17T02:56:25;3.30;;;2.80;;
46505;SDS011;32220;49.808;9.968;2024-03-17T02:58:54;4.33;;;3.40;;
46505;SDS011;32220;49.808;9.968;2024-03-17T03:01:22;3.73;;;2.83;;
46505;SDS011;32220;49.808;9.968;2024-03-17T03:03:50;3.93;;;2.90;;
46505;SDS011;32220;49.808;9.968;2024-03-17T03:06:17;4.73;;;3.10;;
46505;SDS011;32220;49.808;9.968;2024-03-17T03:08:45;5.43;;;3.40;;
46505;SDS011;32220;49.808;9.968;2024-03-17T03:11:15;3.77;;;3.00;;
46505;SDS011;32220;49.808;9.968;2024-03-17T03:13:44;4.67;;;3.33;;
46505;SDS011;32220;49.808;9.968;2024-03-17T03:16:13;4.50;;;3.13;;
46505;SDS011;32220;49.808;9.968;2024-03-17T03:18:41;4.23;;;3.33;;
46505;SDS011;32220;49.808;9.968;2024-03-17T03:21:10;5.33;;;3.77;;
46505;SDS011;32220;49.808;9.968;2024-03-17T03:23:38;3.67;;;3.37;;
46505;SDS011;32220;49.808;9.968;2024-03-17T03:26:05;5.53;;;3.67;;
46505;SDS011;32220;49.808;9.968;2024-03-17T03:28:35;4.07;;;3.30;;
46505;SDS011;32220;49.808;9.968;2024-03-17T03:31:03;3.80;;;3.40;;
46505;SDS011;32220;49.808;9.968;2024-03-17T03:33:32;3.97;;;3.50;;
46505;SDS011;32220;49.808;9.968;2024-03-17T03:36:06;4.17;;;3.17;;
46505;SDS011;32220;49.808;9.968;2024-03-17T03:38:34;3.63;;;3.10;;
46505;SDS011;32220;49.808;9.968;2024-03-17T03:41:05;4.77;;;3.20;;
46505;SDS011;32220;49.808;9.968;2024-03-17T03:43:34;3.57;;;2.53;;
46505;SDS011;32220;49.808;9.968;2024-03-17T08:31:54;5.03;;;4.00;;
46505;SDS011;32220;49.808;9.968;2024-03-17T08:34:22;4.50;;;4.10;;
46505;SDS011;32220;49.808;9.968;2024-03-17T08:36:49;4.50;;;4.10;;
46505;SDS011;32220;49.808;9.968;2024-03-17T08:39:16;4.47;;;4.07;;
46505;SDS011;32220;49.808;9.968;2024-03-17T08:41:44;4.87;;;4.40;;
46505;SDS011;32220;49.808;9.968;2024-03-17T08:44:12;4.53;;;4.13;;
46505;SDS011;32220;49.808;9.968;2024-03-17T08:46:39;3.70;;;3.40;;
46505;SDS011;32220;49.808;9.968;2024-03-17T08:49:08;3.97;;;3.58;;
46505;SDS011;32220;49.808;9.968;2024-03-17T08:51:36;3.80;;;3.40;;
46505;SDS011;32220;49.808;9.968;2024-03-17T08:54:03;4.13;;;3.75;;
46505;SDS011;32220;49.808;9.968;2024-03-17T08:56:31;4.13;;;3.65;;
46505;SDS011;32220;49.808;9.968;2024-03-17T08:59:00;3.55;;;2.97;;
46505;SDS011;32220;49.808;9.968;2024-03-17T09:01:27;3.47;;;3.17;;
46505;SDS011;32220;49.808;9.968;2024-03-17T09:03:54;3.30;;;3.00;;
46505;SDS011;32220;49.808;9.968;2024-03-17T09:06:28;3.13;;;2.92;;
46505;SDS011;32220;49.808;9.968;2024-03-17T09:08:56;3.67;;;3.38;;
46505;SDS011;32220;49.808;9.968;2024-03-17T09:11:24;3.67;;;3.38;;
46505;SDS011;32220;49.808;9.968;2024-03-17T09:13:53;3.63;;;3.33;;
46505;SDS011;32220;49.808;9.968;2024-03-17T09:16:21;3.08;;;2.88;;
46505;SDS011;32220;49.808;9.968;2024-03-17T09:18:51;3.05;;;2.85;;
46505;SDS011;32220;49.808;9.968;2024-03-17T09:21:18;3.50;;;3.22;;
46505;SDS011;32220;49.808;9.968;2024-03-17T09:23:47;4.25;;;3.90;;
46505;SDS011;32220;49.808;9.968;2024-03-17T09:26:16;3.05;;;2.85;;
46505;SDS011;32220;49.808;9.968;2024-03-17T09:28:43;4.45;;;4.15;;
46505;SDS011;32220;49.808;9.968;2024-03-17T09:31:11;5.07;;;4.57;;
46505;SDS011;32220;49.808;9.968;2024-03-17T09:33:38;4.70;;;4.30;;
46505;SDS011;32220;49.808;9.968;2024-03-17T09:36:07;4.72;;;4.22;;
46505;SDS011;32220;49.808;9.968;2024-03-17T09:38:37;3.65;;;3.35;;
46505;SDS011;32220;49.808;9.968;2024-03-17T09:41:07;4.87;;;4.47;;
46505;SDS011;32220;49.808;9.968;2024-03-17T09:43:34;5.03;;;4.20;;
46505;SDS011;32220;49.808;9.968;2024-03-17T09:46:02;4.38;;;3.90;;
46505;SDS011;32220;49.808;9.968;2024-03-17T09:48:30;3.67;;;3.38;;
46505;SDS011;32220;49.808;9.968;2024-03-17T09:50:59;3.70;;;3.40;;
46505;SDS011;32220;49.808;9.968;2024-03-17T09:53:28;3.30;;;3.00;;
46505;SDS011;32220;49.808;9.968;2024-03-17T09:55:57;3.87;;;3.50;;
46505;SDS011;32220;49.808;9.968;2024-03-17T09:58:28;3.70;;;3.40;;
46505;SDS011;32220;49.808;9.968;2024-03-17T10:00:56;3.30;;;3.10;;
46505;SDS011;32220;49.808;9.968;2024-03-17T10:03:39;3.60;;;3.30;;
46505;SDS011;32220;49.808;9.968;2024-03-17T10:06:08;3.50;;;3.20;;
46505;SDS011;32220;49.808;9.968;2024-03-17T10:08:40;3.43;;;3.13;;
46505;SDS011;32220;49.808;9.968;2024-03-17T10:11:11;3.93;;;2.77;;
46505;SDS011;32220;49.808;9.968;2024-03-17T10:13:41;3.70;;;3.40;;
46505;SDS011;32220;49.808;9.968;2024-03-17T10:16:22;3.47;;;3.13;;
46505;SDS011;32220;49.808;9.968;2024-03-17T10:18:51;4.00;;;3.60;;
46505;SDS011;32220;49.808;9.968;2024-03-17T10:21:33;3.27;;;2.73;;
46505;SDS011;32220;49.808;9.968;2024-03-17T10:24:07;3.63;;;2.60;;
46505;SDS011;32220;49.808;9.968;2024-03-17T10:26:37;3.97;;;2.67;;
46505;SDS011;32220;49.808;9.968;2024-03-17T10:29:19;3.20;;;2.80;;
46505;SDS011;32220;49.808;9.968;2024-03-17T10:31:48;4.07;;;2.50;;
46505;SDS011;32220;49.808;9.968;2024-03-17T10:34:16;3.43;;;2.57;;
46505;SDS011;32220;49.808;9.968;2024-03-17T10:36:44;2.75;;;2.40;;
46505;SDS011;32220;49.808;9.968;2024-03-17T10:39:18;3.35;;;2.08;;
46505;SDS011;32220;49.808;9.968;2024-03-17T10:41:57;2.60;;;2.40;;
46505;SDS011;32220;49.808;9.968;2024-03-17T10:44:27;2.30;;;2.05;;
46505;SDS011;32220;49.808;9.968;2024-03-17T10:46:56;2.38;;;2.17;;
46505;SDS011;32220;49.808;9.968;2024-03-17T10:49:27;2.67;;;2.17;;
46505;SDS011;32220;49.808;9.968;2024-03-17T10:51:58;2.55;;;1.75;;
46505;SDS011;32220;49.808;9.968;2024-03-17T10:54:27;2.10;;;1.58;;
46505;SDS011;32220;49.808;9.968;2024-03-17T10:56:55;2.10;;;1.90;;
46505;SDS011;32220;49.808;9.968;2024-03-17T10:59:27;2.17;;;1.90;;
46505;SDS011;32220;49.808;9.968;2024-03-17T11:02:12;2.25;;;2.05;;
46505;SDS011;32220;49.808;9.968;2024-03-17T11:04:49;2.30;;;2.10;;
46505;SDS011;32220;49.808;9.968;2024-03-17T11:07:18;2.45;;;1.80;;
46505;SDS011;32220;49.808;9.968;2024-03-17T11:09:48;1.90;;;1.80;;
46505;SDS011;32220;49.808;9.968;2024-03-17T11:21:10;2.00;;;1.80;;
46505;SDS011;32220;49.808;9.968;2024-03-17T11:24:00;2.20;;;1.92;;
46505;SDS011;32220;49.808;9.968;2024-03-17T11:26:30;2.67;;;2.30;;
46505;SDS011;32220;49.808;9.968;2024-03-17T11:28:58;2.88;;;2.08;;
46505;SDS011;32220;49.808;9.968;2024-03-17T11:31:48;2.85;;;1.92;;
46505;SDS011;32220;49.808;9.968;2024-03-17T11:34:34;2.78;;;1.90;;
46505;SDS011;32220;49.808;9.968;2024-03-17T11:37:03;2.20;;;2.10;;
46505;SDS011;32220;49.808;9.968;2024-03-17T11:39:46;2.60;;;2.40;;
46505;SDS011;32220;49.808;9.968;2024-03-17T11:42:22;3.65;;;2.25;;
46505;SDS011;32220;49.808;9.968;2024-03-17T11:44:55;3.25;;;2.50;;
46505;SDS011;32220;49.808;9.968;2024-03-17T11:47:37;2.55;;;2.30;;
46505;SDS011;32220;49.808;9.968;2024-03-17T11:50:07;2.28;;;2.08;;
46505;SDS011;32220;49.808;9.968;2024-03-17T11:52:36;2.80;;;2.10;;
46505;SDS011;32220;49.808;9.968;2024-03-17T11:55:11;2.87;;;2.60;;
46505;SDS011;32220;49.808;9.968;2024-03-17T11:57:41;3.00;;;2.70;;
46505;SDS011;32220;49.808;9.968;2024-03-17T12:00:20;3.23;;;3.00;;
46505;SDS011;32220;49.808;9.968;2024-03-17T12:02:50;3.60;;;3.10;;
46505;SDS011;32220;49.808;9.968;2024-03-17T12:05:18;3.27;;;2.60;;
46505;SDS011;32220;49.808;9.968;2024-03-17T12:07:46;3.33;;;2.70;;
46505;SDS011;32220;49.808;9.968;2024-03-17T12:10:14;2.83;;;2.47;;
46505;SDS011;32220;49.808;9.968;2024-03-17T12:12:40;5.87;;;3.40;;
46505;SDS011;32220;49.808;9.968;2024-03-17T12:15:15;2.80;;;2.60;;
46505;SDS011;32220;49.808;9.968;2024-03-17T12:17:43;2.50;;;2.30;;
46505;SDS011;32220;49.808;9.968;2024-03-17T12:20:27;3.00;;;2.20;;
46505;SDS011;32220;49.808;9.968;2024-03-17T12:22:54;2.50;;;2.30;;
46505;SDS011;32220;49.808;9.968;2024-03-17T12:25:23;2.50;;;2.30;;
46505;SDS011;32220;49.808;9.968;2024-03-17T12:27:52;3.13;;;2.40;;
46505;SDS011;32220;49.808;9.968;2024-03-17T12:30:19;2.47;;;2.23;;
46505;SDS011;32220;49.808;9.968;2024-03-17T12:32:46;2.27;;;2.07;;
46505;SDS011;32220;49.808;9.968;2024-03-17T12:35:17;3.00;;;2.77;;
46505;SDS011;32220;49.808;9.968;2024-03-17T12:37:44;3.00;;;2.80;;
46505;SDS011;32220;49.808;9.968;2024-03-17T12:40:19;3.00;;;2.70;;
46505;SDS011;32220;49.808;9.968;2024-03-17T12:42:49;2.50;;;2.13;;
46505;SDS011;32220;49.808;9.968;2024-03-17T12:45:21;3.23;;;2.57;;
46505;SDS011;32220;49.808;9.968;2024-03-17T12:47:48;2.80;;;2.57;;
46505;SDS011;32220;49.808;9.968;2024-03-17T12:50:18;3.23;;;2.90;;
46505;SDS011;32220;49.808;9.968;2024-03-17T12:52:51;2.83;;;2.63;;
46505;SDS011;32220;49.808;9.968;2024-03-17T12:55:21;2.23;;;2.03;;
46505;SDS011;32220;49.808;9.968;2024-03-17T12:58:06;2.17;;;2.07;;
46505;SDS011;32220;49.808;9.968;2024-03-17T13:00:58;2.50;;;2.30;;
46505;SDS011;32220;49.808;9.968;2024-03-17T13:03:28;2.43;;;2.23;;
46505;SDS011;32220;49.808;9.968;2024-03-17T13:05:59;2.60;;;2.10;;
46505;SDS011;32220;49.808;9.968;2024-03-17T13:08:28;3.87;;;2.10;;
46505;SDS011;32220;49.808;9.968;2024-03-17T13:10:57;2.33;;;2.13;;
46505;SDS011;32220;49.808;9.968;2024-03-17T13:13:25;2.30;;;1.93;;
46505;SDS011;32220;49.808;9.968;2024-03-17T13:15:52;3.00;;;1.97;;
46505;SDS011;32220;49.808;9.968;2024-03-17T13:18:20;1.67;;;1.57;;
46505;SDS011;32220;49.808;9.968;2024-03-17T13:20:47;3.63;;;1.70;;
46505;SDS011;32220;49.808;9.968;2024-03-17T13:23:18;1.97;;;1.77;;
46505;SDS011;32220;49.808;9.968;2024-03-17T13:25:47;2.23;;;1.87;;
46505;SDS011;32220;49.808;9.968;2024-03-17T13:28:15;2.43;;;1.77;;
46505;SDS011;32220;49.808;9.968;2024-03-17T13:30:42;2.30;;;2.10;;
46505;SDS011;32220;49.808;9.968;2024-03-17T13:33:10;2.20;;;1.73;;
46505;SDS011;32220;49.808;9.968;2024-03-17T13:35:39;2.63;;;2.20;;
46505;SDS011;32220;49.808;9.968;2024-03-17T13:38:07;2.00;;;1.80;;
46505;SDS011;32220;49.808;9.968;2024-03-17T13:40:38;2.37;;;1.80;;
46505;SDS011;32220;49.808;9.968;2024-03-17T13:43:07;1.90;;;1.80;;
46505;SDS011;32220;49.808;9.968;2024-03-17T13:45:37;1.97;;;1.77;;
46505;SDS011;32220;49.808;9.968;2024-03-17T13:48:06;3.73;;;2.00;;
46505;SDS011;32220;49.808;9.968;2024-03-17T13:50:36;2.43;;;1.87;;
46505;SDS011;32220;49.808;9.968;2024-03-17T13:53:05;2.50;;;1.73;;
46505;SDS011;32220;49.808;9.968;2024-03-17T13:55:32;3.47;;;2.23;;
46505;SDS011;32220;49.808;9.968;2024-03-17T13:58:02;1.80;;;1.70;;
46505;SDS011;32220;49.808;9.968;2024-03-17T14:00:31;2.97;;;1.77;;
46505;SDS011;32220;49.808;9.968;2024-03-17T14:03:01;2.50;;;1.97;;
46505;SDS011;32220;49.808;9.968;2024-03-17T14:05:29;2.93;;;1.93;;
46505;SDS011;32220;49.808;9.968;2024-03-17T14:07:58;1.77;;;1.67;;
46505;SDS011;32220;49.808;9.968;2024-03-17T14:10:26;2.10;;;1.90;;
46505;SDS011;32220;49.808;9.968;2024-03-17T14:12:54;2.57;;;2.37;;
46505;SDS011;32220;49.808;9.968;2024-03-17T14:15:24;2.00;;;1.67;;
46505;SDS011;32220;49.808;9.968;2024-03-17T14:17:52;3.53;;;2.03;;
46505;SDS011;32220;49.808;9.968;2024-03-17T14:20:19;2.10;;;1.97;;
46505;SDS011;32220;49.808;9.968;2024-03-17T14:22:47;2.30;;;1.97;;
46505;SDS011;32220;49.808;9.968;2024-03-17T14:25:19;2.00;;;1.90;;
46505;SDS011;32220;49.808;9.968;2024-03-17T14:27:47;1.70;;;1.60;;
46505;SDS011;32220;49.808;9.968;2024-03-17T14:30:16;1.73;;;1.60;;
46505;SDS011;32220;49.808;9.968;2024-03-17T14:32:45;2.77;;;1.90;;
46505;SDS011;32220;49.808;9.968;2024-03-17T14:35:14;2.53;;;1.87;;
46505;SDS011;32220;49.808;9.968;2024-03-17T14:37:43;3.03;;;2.40;;
46505;SDS011;32220;49.808;9.968;2024-03-17T14:40:14;3.03;;;2.10;;
46505;SDS011;32220;49.808;9.968;2024-03-17T14:42:47;2.20;;;1.70;;
46505;SDS011;32220;49.808;9.968;2024-03-17T14:45:15;2.10;;;1.90;;
46505;SDS011;32220;49.808;9.968;2024-03-17T14:47:43;3.23;;;2.03;;
46505;SDS011;32220;49.808;9.968;2024-03-17T14:50:12;2.10;;;1.77;;
46505;SDS011;32220;49.808;9.968;2024-03-17T14:52:41;2.83;;;2.10;;
46505;SDS011;32220;49.808;9.968;2024-03-17T14:55:09;2.23;;;1.80;;
46505;SDS011;32220;49.808;9.968;2024-03-17T14:57:37;1.90;;;1.80;;
46505;SDS011;32220;49.808;9.968;2024-03-17T15:00:06;1.97;;;1.77;;
46505;SDS011;32220;49.808;9.968;2024-03-17T15:02:42;2.37;;;2.17;;
46505;SDS011;32220;49.808;9.968;2024-03-17T15:05:09;2.77;;;2.57;;
46505;SDS011;32220;49.808;9.968;2024-03-17T15:07:38;3.67;;;3.37;;
46505;SDS011;32220;49.808;9.968;2024-03-17T15:10:06;3.23;;;2.93;;
46505;SDS011;32220;49.808;9.968;2024-03-17T15:12:35;3.97;;;3.30;;
46505;SDS011;32220;49.808;9.968;2024-03-17T15:15:03;5.67;;;3.00;;
46505;SDS011;32220;49.808;9.968;2024-03-17T15:17:34;4.03;;;3.20;;
46505;SDS011;32220;49.808;9.968;2024-03-17T15:20:01;4.83;;;3.53;;
46505;SDS011;32220;49.808;9.968;2024-03-17T15:22:34;3.60;;;3.27;;
46505;SDS011;32220;49.808;9.968;2024-03-17T15:25:03;3.77;;;3.47;;
46505;SDS011;32220;49.808;9.968;2024-03-17T15:27:32;3.97;;;3.67;;
46505;SDS011;32220;49.808;9.968;2024-03-17T15:29:59;3.87;;;3.47;;
46505;SDS011;32220;49.808;9.968;2024-03-17T15:32:26;3.53;;;3.10;;
46505;SDS011;32220;49.808;9.968;2024-03-17T15:34:54;4.23;;;3.83;;
46505;SDS011;32220;49.808;9.968;2024-03-17T15:37:24;4.23;;;3.43;;
46505;SDS011;32220;49.808;9.968;2024-03-17T15:39:51;3.60;;;3.23;;
46505;SDS011;32220;49.808;9.968;2024-03-17T15:42:22;4.23;;;3.27;;
46505;SDS011;32220;49.808;9.968;2024-03-17T15:44:50;5.77;;;4.07;;
46505;SDS011;32220;49.808;9.968;2024-03-17T15:47:17;6.00;;;3.50;;
46505;SDS011;32220;49.808;9.968;2024-03-17T15:49:46;4.90;;;3.23;;
46505;SDS011;32220;49.808;9.968;2024-03-17T15:52:13;3.40;;;3.07;;
46505;SDS011;32220;49.808;9.968;2024-03-17T15:54:41;3.40;;;3.10;;
46505;SDS011;32220;49.808;9.968;2024-03-17T15:57:08;3.80;;;3.40;;
46505;SDS011;32220;49.808;9.968;2024-03-17T15:59:37;5.03;;;3.13;;
46505;SDS011;32220;49.808;9.968;2024-03-17T16:02:06;4.87;;;3.30;;
46505;SDS011;32220;49.808;9.968;2024-03-17T16:04:36;4.10;;;2.93;;
46505;SDS011;32220;49.808;9.968;2024-03-17T16:07:04;4.17;;;3.67;;
46505;SDS011;32220;49.808;9.968;2024-03-17T16:09:32;3.47;;;3.17;;
46505;SDS011;32220;49.808;9.968;2024-03-17T16:11:59;4.93;;;4.03;;
46505;SDS011;32220;49.808;9.968;2024-03-17T16:14:27;5.13;;;3.70;;
46505;SDS011;32220;49.808;9.968;2024-03-17T16:16:56;5.17;;;3.67;;
46505;SDS011;32220;49.808;9.968;2024-03-17T16:19:23;4.60;;;4.10;;
46505;SDS011;32220;49.808;9.968;2024-03-17T16:21:52;4.93;;;4.27;;
46505;SDS011;32220;49.808;9.968;2024-03-17T16:24:20;3.70;;;3.40;;
46505;SDS011;32220;49.808;9.968;2024-03-17T16:26:47;6.23;;;3.87;;
46505;SDS011;32220;49.808;9.968;2024-03-17T16:29:15;4.10;;;3.27;;
46505;SDS011;32220;49.808;9.968;2024-03-17T16:31:42;4.10;;;3.70;;
46505;SDS011;32220;49.808;9.968;2024-03-17T16:34:12;4.27;;;3.37;;
46505;SDS011;32220;49.808;9.968;2024-03-17T16:36:42;3.63;;;3.30;;
46505;SDS011;32220;49.808;9.968;2024-03-17T16:39:12;4.40;;;3.60;;
46505;SDS011;32220;49.808;9.968;2024-03-17T16:41:40;4.67;;;3.70;;
46505;SDS011;32220;49.808;9.968;2024-03-17T16:44:08;5.93;;;3.80;;
46505;SDS011;32220;49.808;9.968;2024-03-17T16:47:05;4.77;;;3.57;;
46505;SDS011;32220;49.808;9.968;2024-03-17T16:49:45;5.47;;;3.50;;
46505;SDS011;32220;49.808;9.968;2024-03-17T16:52:12;6.80;;;4.40;;
46505;SDS011;32220;49.808;9.968;2024-03-17T16:54:40;4.03;;;3.40;;
46505;SDS011;32220;49.808;9.968;2024-03-17T16:57:08;4.30;;;3.90;;
46505;SDS011;32220;49.808;9.968;2024-03-17T16:59:39;4.87;;;4.10;;
46505;SDS011;32220;49.808;9.968;2024-03-17T17:02:10;6.10;;;4.47;;
46505;SDS011;32220;49.808;9.968;2024-03-17T17:04:41;5.23;;;4.13;;
46505;SDS011;32220;49.808;9.968;2024-03-17T17:07:10;5.50;;;4.73;;
46505;SDS011;32220;49.808;9.968;2024-03-17T17:09:37;5.07;;;3.87;;
46505;SDS011;32220;49.808;9.968;2024-03-17T17:12:05;5.80;;;4.03;;
46505;SDS011;32220;49.808;9.968;2024-03-17T17:14:34;5.97;;;4.23;;
46505;SDS011;32220;49.808;9.968;2024-03-17T17:17:09;4.70;;;3.57;;
46505;SDS011;32220;49.808;9.968;2024-03-17T17:19:37;3.77;;;3.17;;
46505;SDS011;32220;49.808;9.968;2024-03-17T17:22:05;3.37;;;3.07;;
46505;SDS011;32220;49.808;9.968;2024-03-17T17:24:35;5.37;;;3.80;;
46505;SDS011;32220;49.808;9.968;2024-03-17T17:27:03;6.43;;;3.43;;
46505;SDS011;32220;49.808;9.968;2024-03-17T17:29:35;4.23;;;3.80;;
46505;SDS011;32220;49.808;9.968;2024-03-17T17:32:03;3.40;;;3.03;;
46505;SDS011;32220;49.808;9.968;2024-03-17T17:34:33;4.80;;;3.60;;
46505;SDS011;32220;49.808;9.968;2024-03-17T17:37:01;5.20;;;3.83;;
46505;SDS011;32220;49.808;9.968;2024-03-17T17:39:29;4.30;;;3.90;;
46505;SDS011;32220;49.808;9.968;2024-03-17T17:41:59;4.93;;;4.13;;
46505;SDS011;32220;49.808;9.968;2024-03-17T17:44:30;5.63;;;4.37;;
46505;SDS011;32220;49.808;9.968;2024-03-17T17:46:57;7.80;;;4.87;;
46505;SDS011;32220;49.808;9.968;2024-03-17T17:49:25;6.00;;;4.20;;
46505;SDS011;32220;49.808;9.968;2024-03-17T17:51:53;5.70;;;4.90;;
46505;SDS011;32220;49.808;9.968;2024-03-17T17:54:20;5.23;;;4.23;;
46505;SDS011;32220;49.808;9.968;2024-03-17T17:56:49;4.83;;;3.70;;
46505;SDS011;32220;49.808;9.968;2024-03-17T17:59:18;5.27;;;4.70;;
46505;SDS011;32220;49.808;9.968;2024-03-17T18:01:45;3.93;;;3.53;;
46505;SDS011;32220;49.808;9.968;2024-03-17T18:04:13;4.77;;;4.07;;
46505;SDS011;32220;49.808;9.968;2024-03-17T18:06:40;4.37;;;3.87;;
46505;SDS011;32220;49.808;9.968;2024-03-17T18:09:08;5.77;;;4.57;;
46505;SDS011;32220;49.808;9.968;2024-03-17T18:11:41;4.93;;;4.30;;
46505;SDS011;32220;49.808;9.968;2024-03-17T18:14:09;5.17;;;4.60;;
46505;SDS011;32220;49.808;9.968;2024-03-17T18:16:38;7.37;;;5.57;;
46505;SDS011;32220;49.808;9.968;2024-03-17T18:19:05;7.57;;;5.60;;
46505;SDS011;32220;49.808;9.968;2024-03-17T18:21:35;7.00;;;4.30;;
46505;SDS011;32220;49.808;9.968;2024-03-17T18:24:03;6.17;;;4.43;;
46505;SDS011;32220;49.808;9.968;2024-03-17T18:26:31;5.00;;;3.50;;
46505;SDS011;32220;49.808;9.968;2024-03-17T18:28:58;4.40;;;3.80;;
46505;SDS011;32220;49.808;9.968;2024-03-17T18:31:25;4.30;;;3.60;;
46505;SDS011;32220;49.808;9.968;2024-03-17T18:33:54;4.47;;;3.33;;
46505;SDS011;32220;49.808;9.968;2024-03-17T18:36:23;5.37;;;3.07;;
46505;SDS011;32220;49.808;9.968;2024-03-17T18:38:50;4.13;;;3.57;;
46505;SDS011;32220;49.808;9.968;2024-03-17T18:41:19;3.93;;;3.50;;
46505;SDS011;32220;49.808;9.968;2024-03-17T18:43:46;5.67;;;3.93;;
46505;SDS011;32220;49.808;9.968;2024-03-17T18:46:15;5.47;;;4.10;;
46505;SDS011;32220;49.808;9.968;2024-03-17T18:48:44;4.03;;;3.00;;
46505;SDS011;32220;49.808;9.968;2024-03-17T18:51:17;4.60;;;3.30;;
46505;SDS011;32220;49.808;9.968;2024-03-17T18:53:46;4.43;;;3.63;;
46505;SDS011;32220;49.808;9.968;2024-03-17T18:56:18;5.07;;;4.13;;
46505;SDS011;32220;49.808;9.968;2024-03-17T18:58:46;5.23;;;3.73;;
46505;SDS011;32220;49.808;9.968;2024-03-17T19:01:15;4.27;;;3.87;;
46505;SDS011;32220;49.808;9.968;2024-03-17T19:03:42;6.00;;;4.40;;
46505;SDS011;32220;49.808;9.968;2024-03-17T19:06:10;4.80;;;3.93;;
46505;SDS011;32220;49.808;9.968;2024-03-17T19:08:40;4.63;;;4.00;;
46505;SDS011;32220;49.808;9.968;2024-03-17T19:11:09;5.10;;;3.73;;
46505;SDS011;32220;49.808;9.968;2024-03-17T19:13:39;4.70;;;3.60;;
46505;SDS011;32220;49.808;9.968;2024-03-17T19:16:08;4.77;;;3.77;;
46505;SDS011;32220;49.808;9.968;2024-03-17T19:18:39;8.17;;;6.13;;
46505;SDS011;32220;49.808;9.968;2024-03-17T19:21:08;7.07;;;6.23;;
46505;SDS011;32220;49.808;9.968;2024-03-17T19:23:36;7.60;;;6.20;;
46505;SDS011;32220;49.808;9.968;2024-03-17T19:26:06;7.00;;;6.30;;
46505;SDS011;32220;49.808;9.968;2024-03-17T19:28:37;6.60;;;5.43;;
46505;SDS011;32220;49.808;9.968;2024-03-17T19:31:06;6.33;;;4.90;;
46505;SDS011;32220;49.808;9.968;2024-03-17T19:33:35;6.67;;;5.60;;
46505;SDS011;32220;49.808;9.968;2024-03-17T19:36:04;7.17;;;5.17;;
46505;SDS011;32220;49.808;9.968;2024-03-17T19:38:37;7.20;;;5.50;;
46505;SDS011;32220;49.808;9.968;2024-03-17T19:41:07;6.30;;;5.30;;
46505;SDS011;32220;49.808;9.968;2024-03-17T19:43:35;10.20;;;6.87;;
46505;SDS011;32220;49.808;9.968;2024-03-17T19:46:07;8.60;;;6.07;;
46505;SDS011;32220;49.808;9.968;2024-03-17T19:48:36;7.37;;;5.60;;
46505;SDS011;32220;49.808;9.968;2024-03-17T19:51:07;9.00;;;6.27;;
46505;SDS011;32220;49.808;9.968;2024-03-17T19:53:37;7.97;;;6.40;;
46505;SDS011;32220;49.808;9.968;2024-03-17T19:56:05;9.60;;;7.43;;